< < Back
Terminal Aerodrome Forecast


Current Version              Previous Versions:   1  2  3  4  5  6  7  8  9  

Terminal Aerodrome Forecast

444
FTUS42 KJAX 301720
TAFGNV
TAF
KGNV 301720Z 3018/3118 27008KT P6SM SCT050 BKN100
     FM302000 24006G12KT P6SM VCSH SCT050 BKN100
      TEMPO 3020/3024 5SM SHRA BKN050
     FM310300 24005KT P6SM FEW050 BKN250
     FM310800 VRB03KT 5SM HZ FEW250
      TEMPO 3108/3111 3SM BR
     FM311100 00000KT 2SM BR BKN004
     FM311300 27005KT P6SM BKN250=

Latest METAR

848
SAUS70 KWBC 310200 RRH
MTRGNV
METAR KGNV 310153Z 25008KT 10SM CLR 17/12 A3018 RMK AO2 SLP219
T01720122


USA.gov is the U.S. government's official web portal to all federal, state and local government web resources and services.